createdAt,value
2017-11-26T00:00:49.233Z,2.00
2017-11-26T00:03:16.795Z,2.00
2017-11-26T00:05:44.336Z,2.00
2017-11-26T00:08:11.915Z,2.00
2017-11-26T00:10:39.447Z,1.90
2017-11-26T00:13:07.039Z,1.90
2017-11-26T00:15:34.586Z,1.90
2017-11-26T00:18:02.131Z,1.80
2017-11-26T00:20:29.706Z,1.70
2017-11-26T00:22:57.243Z,1.70
2017-11-26T00:25:24.810Z,1.70
2017-11-26T00:27:52.348Z,1.80
2017-11-26T00:30:20.688Z,1.80
2017-11-26T00:32:48.232Z,1.80
2017-11-26T00:35:15.800Z,1.80
2017-11-26T00:37:43.341Z,1.80
2017-11-26T00:40:11.678Z,1.90
2017-11-26T00:42:39.983Z,1.90
2017-11-26T00:45:07.554Z,1.90
2017-11-26T00:47:35.099Z,1.90
2017-11-26T00:50:02.664Z,2.00
2017-11-26T00:52:30.218Z,2.10
2017-11-26T00:54:57.793Z,2.10
2017-11-26T00:57:25.327Z,2.10
2017-11-26T00:59:52.880Z,2.10
2017-11-26T01:02:21.188Z,2.10
2017-11-26T01:04:48.753Z,2.10
2017-11-26T01:07:16.296Z,2.10
2017-11-26T01:09:43.876Z,2.10
2017-11-26T01:12:11.421Z,2.20
2017-11-26T01:14:38.992Z,2.20
2017-11-26T01:17:06.525Z,2.20
2017-11-26T01:19:34.838Z,2.30
2017-11-26T01:22:02.409Z,2.30
2017-11-26T01:24:29.949Z,2.40
2017-11-26T01:26:57.526Z,2.30
2017-11-26T01:29:25.069Z,2.30
2017-11-26T01:31:52.642Z,2.30
2017-11-26T01:34:20.189Z,2.30
2017-11-26T01:36:47.752Z,2.30
2017-11-26T01:39:15.294Z,2.40
2017-11-26T01:41:42.856Z,2.30
2017-11-26T01:44:11.156Z,2.40
2017-11-26T01:46:38.726Z,2.40
2017-11-26T01:49:06.264Z,2.40
2017-11-26T01:51:33.845Z,2.40
2017-11-26T01:54:01.397Z,2.40
2017-11-26T01:56:28.964Z,2.40
2017-11-26T01:58:56.512Z,2.50
2017-11-26T02:01:24.078Z,2.40
2017-11-26T02:03:58.368Z,2.50
2017-11-26T02:06:25.932Z,2.40
2017-11-26T02:08:53.470Z,2.40
2017-11-26T02:11:21.800Z,2.30
2017-11-26T02:13:49.333Z,2.30
2017-11-26T02:16:16.883Z,2.30
2017-11-26T02:18:44.441Z,2.30
2017-11-26T02:21:12.012Z,2.30
2017-11-26T02:23:39.547Z,2.30
2017-11-26T02:26:07.859Z,2.40
2017-11-26T02:28:35.394Z,2.40
2017-11-26T02:31:02.958Z,2.30
2017-11-26T02:33:42.375Z,2.40
2017-11-26T02:36:15.476Z,2.30
2017-11-26T02:38:43.016Z,2.30
2017-11-26T02:41:11.348Z,2.20
2017-11-26T02:43:38.883Z,2.20
2017-11-26T02:46:06.438Z,2.30
2017-11-26T02:48:33.992Z,2.30
2017-11-26T02:51:01.564Z,2.30
2017-11-26T02:53:29.097Z,2.20
2017-11-26T02:55:57.421Z,2.20
2017-11-26T02:58:24.981Z,2.20
2017-11-26T03:00:52.557Z,2.20
2017-11-26T03:03:20.098Z,2.30
2017-11-26T03:05:47.649Z,2.30
2017-11-26T03:08:15.197Z,2.30
2017-11-26T03:10:42.760Z,2.30
2017-11-26T03:13:10.311Z,2.30
2017-11-26T03:15:37.888Z,2.30
2017-11-26T03:18:05.435Z,2.30
2017-11-26T03:20:33.020Z,2.30
2017-11-26T03:23:00.564Z,2.30
2017-11-26T03:25:28.125Z,2.40
2017-11-26T03:27:55.664Z,2.40
2017-11-26T03:30:24.014Z,2.40
2017-11-26T03:32:51.560Z,2.40
2017-11-26T03:35:19.099Z,2.40
2017-11-26T03:37:46.646Z,2.30
2017-11-26T03:40:14.180Z,2.30
2017-11-26T03:42:41.760Z,2.20
2017-11-26T03:45:09.301Z,2.30
2017-11-26T03:47:37.633Z,2.20
2017-11-26T03:50:05.177Z,2.20
2017-11-26T03:52:44.163Z,2.20
2017-11-26T03:55:12.459Z,2.30
2017-11-26T03:57:40.032Z,2.20
2017-11-26T04:00:07.560Z,2.30
2017-11-26T04:02:35.892Z,2.20
2017-11-26T04:05:03.436Z,2.20
2017-11-26T04:07:31.019Z,2.20
2017-11-26T04:09:58.572Z,2.20
2017-11-26T04:12:26.148Z,2.20
2017-11-26T04:14:53.687Z,2.20
2017-11-26T04:17:21.255Z,2.20
2017-11-26T04:19:48.798Z,2.20
2017-11-26T04:22:16.361Z,2.20
2017-11-26T04:24:43.895Z,2.20
2017-11-26T04:27:11.457Z,2.20
2017-11-26T04:29:38.995Z,2.20
2017-11-26T04:32:07.323Z,2.20
2017-11-26T04:34:34.861Z,2.20
2017-11-26T04:37:02.417Z,2.20
2017-11-26T04:39:29.955Z,2.20
2017-11-26T04:41:58.284Z,2.30
2017-11-26T04:44:25.819Z,2.30
2017-11-26T04:46:53.381Z,2.30
2017-11-26T04:49:20.917Z,2.20
2017-11-26T04:51:48.490Z,2.20
2017-11-26T04:54:16.027Z,2.20
2017-11-26T04:56:44.345Z,2.20
2017-11-26T04:59:11.893Z,2.20
2017-11-26T05:01:39.463Z,2.20
2017-11-26T05:04:06.999Z,2.20
2017-11-26T05:06:34.562Z,2.10
2017-11-26T05:09:02.100Z,2.10
2017-11-26T05:11:30.426Z,2.10
2017-11-26T05:13:57.956Z,2.10
2017-11-26T05:16:25.513Z,2.10
2017-11-26T05:18:53.061Z,2.10
2017-11-26T05:21:21.378Z,2.20
2017-11-26T05:23:48.908Z,2.20
2017-11-26T05:26:16.478Z,2.20
2017-11-26T05:28:44.008Z,2.20
2017-11-26T05:31:12.353Z,2.10
2017-11-26T05:33:39.885Z,2.10
2017-11-26T05:36:07.469Z,2.10
2017-11-26T05:38:35.017Z,2.10
2017-11-26T05:41:02.617Z,2.10
2017-11-26T05:43:30.170Z,2.10
2017-11-26T05:45:59.594Z,2.10
2017-11-26T05:48:27.905Z,2.10
2017-11-26T05:50:56.245Z,2.00
2017-11-26T05:53:24.593Z,2.00
2017-11-26T05:55:52.131Z,2.00
2017-11-26T05:58:20.460Z,2.10
2017-11-26T06:00:48.772Z,2.10
2017-11-26T06:03:16.341Z,2.10
2017-11-26T06:05:43.881Z,2.10
2017-11-26T06:08:11.444Z,2.10
2017-11-26T06:10:38.984Z,2.10
2017-11-26T06:13:07.316Z,2.10
2017-11-26T06:15:34.866Z,2.10
2017-11-26T06:18:02.439Z,2.10
2017-11-26T06:20:29.970Z,2.20
2017-11-26T06:22:58.296Z,2.10
2017-11-26T06:25:25.833Z,2.10
2017-11-26T06:27:53.400Z,2.10
2017-11-26T06:51:23.570Z,2.00
2017-11-26T06:53:51.104Z,2.00
2017-11-26T06:56:18.665Z,2.00
2017-11-26T06:58:46.219Z,2.10
2017-11-26T07:01:13.783Z,2.10
2017-11-26T07:03:41.319Z,2.10
2017-11-26T07:06:08.852Z,2.10
2017-11-26T07:08:37.188Z,2.00
2017-11-26T07:11:04.728Z,2.00
2017-11-26T07:13:32.496Z,2.10
2017-11-26T07:16:00.083Z,2.10
2017-11-26T07:18:27.645Z,2.00
2017-11-26T07:20:55.187Z,2.10
2017-11-26T07:23:23.519Z,2.10
2017-11-26T07:25:51.819Z,2.10
2017-11-26T07:28:19.382Z,2.10
2017-11-26T07:30:46.921Z,2.20
2017-11-26T07:33:15.252Z,2.10
2017-11-26T07:35:42.783Z,2.10
2017-11-26T07:38:10.346Z,2.20
2017-11-26T07:40:37.884Z,2.20
2017-11-26T07:43:06.209Z,2.20
2017-11-26T07:45:33.754Z,2.20
2017-11-26T07:48:01.337Z,2.20
2017-11-26T07:50:28.864Z,2.20
2017-11-26T07:52:56.785Z,2.20
2017-11-26T07:55:24.319Z,2.20
2017-11-26T07:57:51.879Z,2.20
2017-11-26T08:00:19.411Z,2.10
2017-11-26T08:02:46.965Z,2.20
2017-11-26T08:05:14.508Z,2.20
2017-11-26T08:07:42.074Z,2.20
2017-11-26T08:10:09.614Z,2.20
2017-11-26T08:12:37.945Z,2.20
2017-11-26T08:15:05.488Z,2.20
2017-11-26T08:17:33.045Z,2.20
2017-11-26T08:20:01.030Z,2.30
2017-11-26T08:22:28.585Z,2.20
2017-11-26T08:24:56.143Z,2.30
2017-11-26T08:27:23.718Z,2.30
2017-11-26T08:29:51.257Z,2.40
2017-11-26T08:32:18.816Z,2.50
2017-11-26T08:34:46.340Z,2.50
2017-11-26T08:37:14.677Z,2.50
2017-11-26T08:39:42.218Z,2.40
2017-11-26T08:42:09.782Z,2.50
2017-11-26T08:44:37.317Z,2.50
2017-11-26T08:47:04.893Z,2.60
2017-11-26T08:49:32.424Z,2.70
2017-11-26T08:52:00.753Z,2.70
2017-11-26T08:54:28.288Z,2.70
2017-11-26T08:56:55.856Z,2.80
2017-11-26T08:59:23.381Z,2.80
2017-11-26T09:01:51.729Z,2.70
2017-11-26T09:04:19.264Z,2.70
2017-11-26T09:06:47.428Z,2.80
2017-11-26T09:09:14.978Z,2.80
2017-11-26T09:11:42.545Z,2.70
2017-11-26T09:14:10.089Z,2.60
2017-11-26T09:16:37.624Z,2.60
2017-11-26T09:19:06.008Z,2.70
2017-11-26T09:21:33.561Z,2.70
2017-11-26T09:24:01.892Z,2.70
2017-11-26T09:26:29.426Z,2.60
2017-11-26T09:28:56.975Z,2.60
2017-11-26T09:31:24.508Z,2.50
2017-11-26T09:33:52.072Z,2.70
2017-11-26T09:36:19.620Z,2.60
2017-11-26T09:38:47.191Z,2.80
2017-11-26T09:41:14.725Z,2.70
2017-11-26T09:43:42.289Z,2.70
2017-11-26T09:46:09.825Z,2.70
2017-11-26T09:48:37.372Z,2.70
2017-11-26T09:53:58.618Z,2.90
2017-11-26T09:56:26.157Z,2.90
2017-11-26T09:58:53.711Z,2.90
2017-11-26T10:01:21.240Z,2.80
2017-11-26T10:03:48.804Z,2.80
2017-11-26T10:06:17.105Z,2.90
2017-11-26T10:08:44.664Z,2.90
2017-11-26T10:11:12.222Z,3.00
2017-11-26T10:13:39.791Z,3.00
2017-11-26T10:16:07.330Z,3.00
2017-11-26T10:18:35.650Z,3.20
2017-11-26T10:21:03.180Z,3.20
2017-11-26T10:23:30.734Z,3.20
2017-11-26T10:25:58.273Z,3.20
2017-11-26T10:28:25.841Z,3.10
2017-11-26T10:30:54.148Z,3.10
2017-11-26T10:33:21.700Z,3.10
2017-11-26T10:35:49.237Z,3.10
2017-11-26T10:38:17.571Z,2.90
2017-11-26T10:40:45.100Z,2.90
2017-11-26T10:43:12.667Z,2.90
2017-11-26T10:45:40.200Z,3.00
2017-11-26T10:48:08.520Z,2.90
2017-11-26T10:50:36.049Z,2.90
2017-11-26T10:53:03.624Z,2.90
2017-11-26T10:55:31.156Z,3.00
2017-11-26T10:57:59.471Z,3.00
2017-11-26T11:00:27.011Z,3.00
2017-11-26T11:02:54.576Z,3.10
2017-11-26T11:05:22.128Z,3.00
2017-11-26T11:07:49.692Z,3.00
2017-11-26T11:10:17.227Z,3.10
2017-11-26T11:12:45.547Z,3.20
2017-11-26T11:15:13.071Z,3.20
2017-11-26T11:17:41.401Z,3.30
2017-11-26T11:20:08.940Z,3.30
2017-11-26T11:22:36.606Z,3.20
2017-11-26T11:25:04.143Z,3.10
2017-11-26T11:27:31.708Z,3.30
2017-11-26T11:29:59.240Z,3.30
2017-11-26T11:32:27.563Z,3.20
2017-11-26T11:34:55.100Z,3.20
2017-11-26T11:37:22.663Z,3.30
2017-11-26T11:39:50.198Z,3.30
2017-11-26T11:42:18.537Z,3.40
2017-11-26T11:44:46.075Z,3.40
2017-11-26T11:47:13.602Z,3.30
2017-11-26T11:49:41.930Z,3.20
2017-11-26T11:52:09.455Z,3.20
2017-11-26T11:54:54.992Z,3.20
2017-11-26T11:57:22.548Z,3.10
2017-11-26T11:59:50.118Z,3.20
2017-11-26T12:02:17.693Z,3.20
2017-11-26T12:04:46.019Z,3.20
2017-11-26T12:07:14.326Z,3.10
2017-11-26T12:09:41.888Z,3.10
2017-11-26T12:12:09.415Z,3.00
2017-11-26T12:14:36.971Z,3.10
2017-11-26T12:17:04.640Z,3.00
2017-11-26T12:19:32.196Z,3.20
2017-11-26T12:21:59.732Z,3.20
2017-11-26T12:24:27.288Z,3.30
2017-11-26T12:26:54.824Z,3.30
2017-11-26T12:29:22.380Z,3.40
2017-11-26T12:31:49.917Z,3.40
2017-11-26T12:34:17.813Z,3.30
2017-11-26T12:36:46.217Z,3.20
2017-11-26T12:39:13.787Z,3.20
2017-11-26T12:41:41.334Z,3.20
2017-11-26T12:44:08.896Z,3.20
2017-11-26T12:46:36.420Z,3.10
2017-11-26T12:49:03.989Z,3.10
2017-11-26T12:51:31.519Z,3.10
2017-11-26T12:53:59.075Z,3.00
2017-11-26T12:56:26.608Z,3.10
2017-11-26T12:58:54.169Z,3.10
2017-11-26T13:01:21.716Z,3.00
2017-11-26T13:03:49.273Z,3.00
2017-11-26T13:06:16.799Z,3.10
2017-11-26T13:08:44.388Z,3.10
2017-11-26T13:11:11.928Z,3.10
2017-11-26T13:13:40.268Z,3.10
2017-11-26T13:16:07.804Z,3.10
2017-11-26T13:18:35.372Z,3.20
2017-11-26T13:21:02.922Z,3.20
2017-11-26T13:23:30.493Z,3.20
2017-11-26T13:25:58.030Z,3.30
2017-11-26T13:28:25.585Z,3.40
2017-11-26T13:30:53.120Z,3.40
2017-11-26T13:33:21.451Z,3.30
2017-11-26T13:35:48.999Z,3.30
2017-11-26T13:38:16.573Z,3.30
2017-11-26T13:40:44.103Z,3.40
2017-11-26T13:43:11.674Z,3.40
2017-11-26T13:45:39.223Z,3.50
2017-11-26T13:48:06.791Z,3.60
2017-11-26T13:50:34.335Z,3.80
2017-11-26T13:53:01.943Z,4.00
2017-11-26T13:55:29.472Z,3.90
2017-11-26T13:57:57.043Z,3.80
2017-11-26T14:00:24.583Z,3.80
2017-11-26T14:02:52.118Z,3.80
2017-11-26T14:05:20.467Z,3.60
2017-11-26T14:07:48.016Z,3.60
2017-11-26T14:10:15.567Z,3.60
2017-11-26T14:12:43.115Z,3.80
2017-11-26T14:15:10.675Z,3.70
2017-11-26T14:17:38.212Z,3.50
2017-11-26T14:20:06.544Z,3.40
2017-11-26T14:22:34.094Z,3.30
2017-11-26T14:25:02.417Z,3.40
2017-11-26T14:27:30.716Z,3.40
2017-11-26T14:29:58.291Z,3.40
2017-11-26T14:32:25.832Z,3.30
2017-11-26T14:34:53.400Z,3.40
2017-11-26T14:37:20.955Z,3.30
2017-11-26T14:39:48.515Z,3.30
2017-11-26T14:42:16.052Z,3.20
2017-11-26T14:44:44.377Z,3.20
2017-11-26T14:47:11.983Z,3.20
2017-11-26T14:49:39.535Z,3.20
2017-11-26T14:52:07.073Z,3.20
2017-11-26T14:54:34.725Z,3.20
2017-11-26T14:57:02.283Z,3.20
2017-11-26T14:59:29.862Z,3.20
2017-11-26T15:01:57.453Z,3.20
2017-11-26T15:04:25.802Z,3.10
2017-11-26T15:06:53.335Z,3.10
2017-11-26T15:09:20.911Z,3.10
2017-11-26T15:11:48.437Z,3.10
2017-11-26T15:14:16.019Z,3.10
2017-11-26T15:16:43.577Z,3.10
2017-11-26T15:19:11.133Z,3.10
2017-11-26T15:21:38.699Z,3.10
2017-11-26T15:24:06.273Z,3.10
2017-11-26T15:26:33.855Z,3.10
2017-11-26T15:29:01.424Z,3.00
2017-11-26T15:31:28.952Z,3.00
2017-11-26T15:33:56.516Z,3.00
2017-11-26T15:36:24.051Z,3.00
2017-11-26T15:38:51.607Z,3.00
2017-11-26T15:41:19.132Z,3.00
2017-11-26T15:43:47.459Z,2.90
2017-11-26T15:46:15.000Z,2.90
2017-11-26T15:48:42.580Z,2.90
2017-11-26T15:51:10.112Z,2.80
2017-11-26T15:53:37.672Z,2.70
2017-11-26T15:56:05.204Z,2.70
2017-11-26T15:58:33.524Z,2.70
2017-11-26T16:01:01.066Z,2.60
2017-11-26T16:03:28.602Z,2.70
2017-11-26T16:05:56.932Z,2.60
2017-11-26T16:08:24.461Z,2.60
2017-11-26T16:10:52.020Z,2.50
2017-11-26T16:13:19.551Z,2.40
2017-11-26T16:15:47.878Z,2.50
2017-11-26T16:18:15.410Z,2.40
2017-11-26T16:20:42.976Z,2.50
2017-11-26T16:23:10.514Z,2.50
2017-11-26T16:25:38.896Z,2.60
2017-11-26T16:28:07.201Z,2.70
2017-11-26T16:30:34.765Z,2.70
2017-11-26T16:33:02.420Z,2.60
2017-11-26T16:35:29.976Z,2.70
2017-11-26T16:37:57.504Z,2.70
2017-11-26T16:40:25.064Z,2.70
2017-11-26T16:42:52.599Z,2.80
2017-11-26T16:45:20.148Z,2.70
2017-11-26T16:47:47.680Z,2.70
2017-11-26T16:50:15.237Z,2.70
2017-11-26T16:52:42.767Z,2.70
2017-11-26T16:55:11.107Z,2.70
2017-11-26T16:57:38.667Z,2.70
2017-11-26T17:00:06.231Z,2.80
2017-11-26T17:02:33.759Z,2.80
2017-11-26T17:05:01.393Z,2.80
2017-11-26T17:07:29.688Z,2.70
2017-11-26T17:09:57.240Z,2.70
2017-11-26T17:12:24.775Z,2.70
2017-11-26T17:14:52.324Z,2.80
2017-11-26T17:17:19.856Z,2.80
2017-11-26T17:19:47.407Z,2.80
2017-11-26T17:22:14.943Z,2.70
2017-11-26T17:24:42.493Z,2.80
2017-11-26T17:27:10.793Z,2.70
2017-11-26T17:29:38.354Z,2.70
2017-11-26T17:32:05.908Z,2.70
2017-11-26T17:34:33.469Z,2.70
2017-11-26T17:37:01.063Z,2.70
2017-11-26T17:39:28.621Z,2.70
2017-11-26T17:41:56.160Z,2.70
2017-11-26T17:44:23.722Z,2.70
2017-11-26T17:46:51.255Z,2.60
2017-11-26T17:49:18.820Z,2.60
2017-11-26T17:51:46.495Z,2.60
2017-11-26T17:54:14.181Z,2.60
2017-11-26T17:56:41.733Z,2.60
2017-11-26T17:59:09.300Z,2.70
2017-11-26T18:01:36.845Z,2.70
2017-11-26T18:04:04.421Z,2.60
2017-11-26T18:06:32.736Z,2.60
2017-11-26T18:09:01.056Z,2.70
2017-11-26T18:11:28.664Z,2.70
2017-11-26T18:13:56.197Z,2.60
2017-11-26T18:16:23.761Z,2.60
2017-11-26T18:18:51.292Z,2.60
2017-11-26T18:21:18.851Z,2.60
2017-11-26T18:23:46.387Z,2.70
2017-11-26T18:26:14.717Z,2.80
2017-11-26T18:28:42.261Z,2.80
2017-11-26T18:31:09.823Z,2.90
2017-11-26T18:33:37.355Z,2.80
2017-11-26T18:36:04.918Z,2.70
2017-11-26T18:38:32.456Z,2.70
2017-11-26T18:41:00.812Z,2.70
2017-11-26T18:43:28.356Z,2.70
2017-11-26T18:45:55.928Z,2.70
2017-11-26T18:48:23.488Z,2.70
2017-11-26T18:50:51.052Z,2.70
2017-11-26T18:53:18.597Z,2.70
2017-11-26T18:55:46.153Z,2.60
2017-11-26T18:58:13.683Z,2.60
2017-11-26T19:00:41.238Z,2.60
2017-11-26T19:03:08.763Z,2.60
2017-11-26T19:05:37.086Z,2.70
2017-11-26T19:08:04.624Z,2.60
2017-11-26T19:10:32.171Z,2.70
2017-11-26T19:13:00.481Z,2.60
2017-11-26T19:15:28.035Z,2.60
2017-11-26T19:17:55.569Z,2.60
2017-11-26T19:20:23.904Z,2.60
2017-11-26T19:22:52.252Z,2.60
2017-11-26T19:25:19.808Z,2.60
2017-11-26T19:27:47.336Z,2.50
2017-11-26T19:30:15.663Z,2.50
2017-11-26T19:32:43.193Z,2.50
2017-11-26T19:35:10.752Z,2.50
2017-11-26T19:37:38.287Z,2.50
2017-11-26T19:40:05.843Z,2.60
2017-11-26T19:42:34.145Z,2.60
2017-11-26T19:45:01.711Z,2.60
2017-11-26T19:47:29.240Z,2.60
2017-11-26T19:49:56.804Z,2.60
2017-11-26T19:52:25.106Z,2.70
2017-11-26T19:54:53.430Z,2.70
2017-11-26T19:57:20.971Z,2.70
2017-11-26T19:59:48.532Z,2.70
2017-11-26T20:02:16.062Z,2.60
2017-11-26T20:04:43.613Z,2.70
2017-11-26T20:07:11.908Z,2.70
2017-11-26T20:09:39.465Z,2.70
2017-11-26T20:12:06.992Z,2.70
2017-11-26T20:14:35.283Z,2.50
2017-11-26T20:17:03.612Z,2.50
2017-11-26T20:19:31.145Z,2.50
2017-11-26T20:21:58.700Z,2.50
2017-11-26T20:24:26.244Z,2.50
2017-11-26T20:26:53.804Z,2.50
2017-11-26T20:29:24.326Z,2.50
2017-11-26T20:31:52.648Z,2.50
2017-11-26T20:34:20.176Z,2.50
2017-11-26T20:36:47.735Z,2.60
2017-11-26T20:39:15.272Z,2.50
2017-11-26T20:41:43.596Z,2.60
2017-11-26T20:44:11.138Z,2.50
2017-11-26T20:46:38.693Z,2.60
2017-11-26T20:49:06.219Z,2.60
2017-11-26T20:51:33.771Z,2.60
2017-11-26T20:54:01.304Z,2.60
2017-11-26T20:56:28.854Z,2.60
2017-11-26T20:58:56.401Z,2.60
2017-11-26T21:01:23.966Z,2.60
2017-11-26T21:03:51.494Z,2.60
2017-11-26T21:06:19.821Z,2.60
2017-11-26T21:08:47.356Z,2.60
2017-11-26T21:11:14.909Z,2.60
2017-11-26T21:13:42.448Z,2.60
2017-11-26T21:16:10.765Z,2.50
2017-11-26T21:18:38.290Z,2.50
2017-11-26T21:21:06.610Z,2.60
2017-11-26T21:23:34.155Z,2.60
2017-11-26T21:26:01.740Z,2.60
2017-11-26T21:28:29.268Z,2.60
2017-11-26T21:30:56.827Z,2.40
2017-11-26T21:33:24.402Z,2.50
2017-11-26T21:35:51.972Z,2.50
2017-11-26T21:38:19.510Z,2.60
2017-11-26T21:40:47.271Z,2.50
2017-11-26T21:43:14.806Z,2.50
2017-11-26T21:45:43.131Z,2.60
2017-11-26T21:48:10.668Z,2.60
2017-11-26T21:50:38.224Z,2.50
2017-11-26T21:53:05.759Z,2.50
2017-11-26T21:55:33.765Z,2.60
2017-11-26T21:58:01.384Z,2.60
2017-11-26T22:00:29.044Z,2.60
2017-11-26T22:02:56.597Z,2.60
2017-11-26T22:05:24.140Z,2.60
2017-11-26T22:07:51.707Z,2.50
2017-11-26T22:10:19.232Z,2.50
2017-11-26T22:12:47.800Z,2.60
2017-11-26T22:15:15.327Z,2.60
2017-11-26T22:17:42.887Z,2.50
2017-11-26T22:20:10.419Z,2.50
2017-11-26T22:22:37.972Z,2.50
2017-11-26T22:25:06.269Z,2.40
2017-11-26T22:27:33.835Z,2.50
2017-11-26T22:30:01.360Z,2.50
2017-11-26T22:32:28.915Z,2.50
2017-11-26T22:34:56.453Z,2.40
2017-11-26T22:37:24.007Z,2.40
2017-11-26T22:39:51.542Z,2.40
2017-11-26T22:42:19.092Z,2.40
2017-11-26T22:44:46.619Z,2.30
2017-11-26T22:47:14.177Z,2.30
2017-11-26T22:49:41.705Z,2.20
2017-11-26T22:52:15.218Z,2.20
2017-11-26T22:54:42.743Z,2.10
2017-11-26T22:57:11.076Z,2.10
2017-11-26T22:59:38.607Z,2.10
2017-11-26T23:02:06.137Z,2.10
2017-11-26T23:04:36.368Z,2.20
2017-11-26T23:07:04.671Z,2.20
2017-11-26T23:09:32.242Z,2.20
2017-11-26T23:11:59.775Z,2.20
2017-11-26T23:14:28.080Z,2.10
2017-11-26T23:16:55.604Z,2.10
2017-11-26T23:19:23.927Z,2.10
2017-11-26T23:21:51.449Z,2.10
2017-11-26T23:24:19.760Z,2.20
2017-11-26T23:26:47.288Z,2.20
2017-11-26T23:29:14.838Z,2.20
2017-11-26T23:31:43.136Z,2.20
2017-11-26T23:34:10.696Z,2.20
2017-11-26T23:36:38.225Z,2.20
2017-11-26T23:39:05.780Z,2.20
2017-11-26T23:41:33.303Z,2.20
2017-11-26T23:44:00.853Z,2.20
2017-11-26T23:46:28.375Z,2.20
2017-11-26T23:48:56.686Z,2.20
2017-11-26T23:51:27.079Z,2.20
2017-11-26T23:53:55.391Z,2.30
2017-11-26T23:56:22.918Z,2.30
2017-11-26T23:58:51.208Z,2.20
